createdAt,value
2022-12-20T00:01:34.744Z,4.10
2022-12-20T00:04:05.587Z,3.80
2022-12-20T00:06:35.227Z,3.80
2022-12-20T00:09:05.548Z,3.90
2022-12-20T00:11:33.231Z,4.00
2022-12-20T00:14:00.854Z,4.00
2022-12-20T00:16:29.766Z,3.50
2022-12-20T00:19:00.385Z,3.90
2022-12-20T00:21:30.091Z,3.80
2022-12-20T00:23:58.310Z,3.80
2022-12-20T00:26:29.246Z,3.90
2022-12-20T00:28:57.639Z,3.70
2022-12-20T00:31:27.299Z,3.80
2022-12-20T00:33:56.707Z,3.70
2022-12-20T00:36:27.176Z,3.70
2022-12-20T00:38:56.957Z,4.00
2022-12-20T00:41:30.745Z,3.80
2022-12-20T00:43:58.388Z,3.70
2022-12-20T00:46:26.514Z,3.90
2022-12-20T00:48:55.813Z,3.90
2022-12-20T00:51:27.313Z,3.90
2022-12-20T00:53:56.250Z,3.80
2022-12-20T00:56:25.989Z,3.70
2022-12-20T00:58:58.870Z,3.80
2022-12-20T01:01:30.550Z,3.80
2022-12-20T01:03:59.332Z,3.90
2022-12-20T01:06:28.158Z,3.60
2022-12-20T01:08:57.163Z,3.70
2022-12-20T01:11:27.470Z,3.70
2022-12-20T01:13:58.363Z,3.50
2022-12-20T01:16:27.701Z,3.70
2022-12-20T01:18:55.833Z,3.70
2022-12-20T01:21:26.441Z,3.90
2022-12-20T01:23:55.103Z,3.90
2022-12-20T01:26:25.829Z,3.90
2022-12-20T01:28:56.367Z,3.50
2022-12-20T01:31:26.111Z,3.90
2022-12-20T01:33:54.060Z,3.50
2022-12-20T01:36:27.503Z,4.00
2022-12-20T01:39:00.961Z,4.00
2022-12-20T01:41:30.913Z,3.80
2022-12-20T01:44:00.098Z,3.70
2022-12-20T01:46:30.702Z,3.90
2022-12-20T01:49:14.526Z,3.80
2022-12-20T01:51:48.987Z,3.90
2022-12-20T01:54:28.316Z,3.50
2022-12-20T01:57:03.937Z,3.70
2022-12-20T01:59:36.236Z,3.80
2022-12-20T02:02:09.813Z,3.60
2022-12-20T02:04:37.994Z,4.00
2022-12-20T02:07:08.566Z,4.20
2022-12-20T02:09:38.697Z,3.80
2022-12-20T02:12:11.970Z,3.90
2022-12-20T02:15:02.396Z,4.10
2022-12-20T02:17:36.162Z,4.00
2022-12-20T02:20:35.887Z,4.20
2022-12-20T02:23:22.608Z,4.20
2022-12-20T02:25:50.245Z,4.20
2022-12-20T02:28:49.899Z,4.00
2022-12-20T02:31:21.746Z,3.90
2022-12-20T02:33:52.145Z,4.00
2022-12-20T02:36:21.320Z,4.20
2022-12-20T02:38:49.477Z,3.90
2022-12-20T02:41:30.296Z,4.30
2022-12-20T02:44:18.964Z,4.30
2022-12-20T02:46:48.393Z,4.10
2022-12-20T02:49:22.901Z,3.80
2022-12-20T02:51:54.554Z,4.20
2022-12-20T02:54:22.615Z,4.00
2022-12-20T02:57:00.400Z,3.80
2022-12-20T02:59:35.909Z,4.20
2022-12-20T03:02:05.149Z,3.70
2022-12-20T03:04:37.723Z,4.00
2022-12-20T03:07:09.734Z,4.00
2022-12-20T03:09:40.498Z,4.00
2022-12-20T03:12:09.839Z,4.30
2022-12-20T03:14:38.724Z,4.10
2022-12-20T03:17:08.706Z,4.00
2022-12-20T03:19:36.578Z,4.50
2022-12-20T03:22:04.565Z,4.50
2022-12-20T03:24:33.158Z,4.10
2022-12-20T03:27:01.005Z,4.10
2022-12-20T03:29:29.138Z,4.20
2022-12-20T03:31:57.135Z,4.30
2022-12-20T03:34:24.812Z,4.20
2022-12-20T03:36:52.479Z,4.00
2022-12-20T03:39:20.160Z,4.10
2022-12-20T03:41:51.668Z,4.40
2022-12-20T03:44:19.544Z,4.30
2022-12-20T03:46:47.287Z,4.20
2022-12-20T03:49:15.137Z,4.20
2022-12-20T03:51:49.129Z,4.20
2022-12-20T03:54:16.770Z,4.10
2022-12-20T03:57:00.371Z,4.20
2022-12-20T03:59:28.837Z,4.30
2022-12-20T04:01:57.189Z,4.30
2022-12-20T04:04:27.789Z,4.40
2022-12-20T04:06:55.553Z,4.30
2022-12-20T04:09:23.432Z,4.30
2022-12-20T04:11:54.774Z,4.10
2022-12-20T04:14:22.477Z,4.30
2022-12-20T04:16:50.263Z,4.20
2022-12-20T04:19:20.275Z,4.30
2022-12-20T04:21:48.199Z,4.10
2022-12-20T04:24:17.125Z,3.90
2022-12-20T04:26:55.070Z,4.00
2022-12-20T04:29:23.009Z,4.30
2022-12-20T04:31:51.238Z,4.20
2022-12-20T04:34:19.617Z,4.10
2022-12-20T04:36:48.047Z,4.10
2022-12-20T04:39:21.612Z,4.00
2022-12-20T04:42:05.272Z,4.20
2022-12-20T04:44:32.937Z,4.20
2022-12-20T04:47:00.796Z,4.30
2022-12-20T04:49:29.242Z,4.10
2022-12-20T04:52:17.204Z,4.00
2022-12-20T04:54:46.546Z,4.40
2022-12-20T04:57:17.418Z,4.20
2022-12-20T04:59:45.632Z,4.30
2022-12-20T05:02:14.280Z,4.30
2022-12-20T05:04:49.682Z,4.10
2022-12-20T05:07:17.643Z,4.30
2022-12-20T05:09:51.212Z,4.20
2022-12-20T05:12:18.890Z,4.20
2022-12-20T05:14:47.042Z,4.20
2022-12-20T05:17:16.746Z,4.10
2022-12-20T05:19:44.848Z,3.90
2022-12-20T05:22:29.973Z,4.10
2022-12-20T05:25:23.631Z,4.10
2022-12-20T05:27:51.970Z,4.30
2022-12-20T05:30:20.462Z,4.10
2022-12-20T05:32:48.563Z,4.00
2022-12-20T05:35:16.583Z,4.20
2022-12-20T05:37:45.435Z,4.10
2022-12-20T05:40:17.691Z,4.20
2022-12-20T05:42:45.498Z,3.80
2022-12-20T05:45:14.980Z,4.10
2022-12-20T05:47:56.626Z,4.00
2022-12-20T05:50:25.306Z,3.90
2022-12-20T05:53:11.977Z,4.00
2022-12-20T05:55:51.222Z,4.00
2022-12-20T05:58:20.806Z,3.80
2022-12-20T06:00:53.954Z,3.90
2022-12-20T06:03:23.444Z,4.20
2022-12-20T06:05:51.547Z,4.00
2022-12-20T06:08:25.388Z,3.80
2022-12-20T06:10:54.323Z,4.10
2022-12-20T06:13:23.103Z,4.00
2022-12-20T06:15:53.884Z,4.20
2022-12-20T06:18:22.795Z,4.20
2022-12-20T06:20:54.420Z,3.90
2022-12-20T06:23:24.663Z,4.10
2022-12-20T06:26:09.531Z,3.90
2022-12-20T06:28:47.481Z,4.10
2022-12-20T06:31:15.547Z,3.50
2022-12-20T06:33:48.004Z,4.10
2022-12-20T06:36:17.458Z,4.10
2022-12-20T06:38:46.010Z,3.90
2022-12-20T06:41:15.252Z,4.10
2022-12-20T06:43:43.049Z,4.10
2022-12-20T06:46:12.169Z,3.80
2022-12-20T06:48:40.057Z,3.80
2022-12-20T06:51:11.074Z,4.10
2022-12-20T06:53:39.117Z,4.20
2022-12-20T06:56:07.475Z,4.20
2022-12-20T06:58:35.140Z,4.10
2022-12-20T07:01:03.345Z,3.90
2022-12-20T07:03:31.442Z,4.00
2022-12-20T07:05:59.229Z,4.00
2022-12-20T07:08:26.906Z,3.60
2022-12-20T07:10:54.902Z,4.20
2022-12-20T07:13:23.167Z,3.80
2022-12-20T07:15:58.116Z,4.10
2022-12-20T07:18:26.024Z,3.60
2022-12-20T07:20:53.813Z,4.10
2022-12-20T07:23:21.531Z,3.80
2022-12-20T07:25:56.751Z,4.20
2022-12-20T07:28:26.206Z,4.10
2022-12-20T07:30:54.518Z,4.30
2022-12-20T07:33:22.405Z,4.10
2022-12-20T07:35:54.405Z,4.20
2022-12-20T07:38:22.857Z,4.20
2022-12-20T07:40:50.678Z,3.90
2022-12-20T07:43:18.343Z,4.10
2022-12-20T07:45:47.682Z,4.00
2022-12-20T07:48:19.652Z,4.00
2022-12-20T07:53:21.469Z,4.30
2022-12-20T07:55:50.314Z,4.10
2022-12-20T07:58:19.841Z,4.00
2022-12-20T08:00:47.693Z,4.10
2022-12-20T08:03:23.003Z,4.20
2022-12-20T08:05:55.369Z,4.00
2022-12-20T08:08:26.008Z,4.00
2022-12-20T08:10:53.662Z,3.90
2022-12-20T08:13:21.444Z,4.40
2022-12-20T08:15:49.276Z,4.10
2022-12-20T08:18:16.891Z,4.10
2022-12-20T08:20:44.509Z,4.20
2022-12-20T08:23:12.196Z,4.30
2022-12-20T08:25:42.161Z,3.80
2022-12-20T08:28:10.170Z,4.10
2022-12-20T08:30:38.098Z,4.10
2022-12-20T08:33:05.945Z,4.20
2022-12-20T08:35:33.953Z,4.10
2022-12-20T08:38:01.574Z,4.00
2022-12-20T08:40:36.099Z,4.10
2022-12-20T08:43:10.157Z,3.90
2022-12-20T08:45:54.837Z,4.20
2022-12-20T08:48:23.019Z,3.90
2022-12-20T08:50:58.489Z,4.10
2022-12-20T08:53:26.859Z,4.20
2022-12-20T08:55:55.177Z,4.20
2022-12-20T08:58:22.857Z,4.10
2022-12-20T09:00:50.571Z,4.20
2022-12-20T09:03:18.451Z,4.10
2022-12-20T09:05:47.274Z,5.00
2022-12-20T09:08:16.847Z,4.40
2022-12-20T09:10:44.492Z,4.10
2022-12-20T09:13:12.413Z,3.90
2022-12-20T09:15:42.358Z,4.20
2022-12-20T09:18:10.326Z,4.00
2022-12-20T09:20:45.409Z,4.10
2022-12-20T09:23:13.334Z,3.90
2022-12-20T09:25:41.253Z,3.80
2022-12-20T09:28:09.111Z,3.50
2022-12-20T09:30:37.256Z,3.70
2022-12-20T09:33:08.923Z,4.00
2022-12-20T09:35:45.120Z,4.20
2022-12-20T09:38:13.925Z,4.20
2022-12-20T09:40:47.058Z,3.90
2022-12-20T09:43:16.842Z,4.00
2022-12-20T09:45:47.905Z,4.00
2022-12-20T09:48:57.689Z,4.00
2022-12-20T09:51:53.863Z,4.10
2022-12-20T09:54:42.633Z,4.10
2022-12-20T09:57:32.715Z,4.00
2022-12-20T10:00:00.758Z,3.90
2022-12-20T10:05:37.145Z,4.20
2022-12-20T10:08:17.434Z,4.10
2022-12-20T10:10:51.053Z,4.10
2022-12-20T10:13:40.070Z,4.10
2022-12-20T10:16:34.214Z,4.00
2022-12-20T10:19:08.687Z,4.00
2022-12-20T10:21:52.951Z,4.30
2022-12-20T10:24:40.164Z,4.20
2022-12-20T10:27:18.481Z,3.90
2022-12-20T10:29:49.496Z,4.10
2022-12-20T10:32:23.624Z,4.20
2022-12-20T10:34:59.811Z,4.20
2022-12-20T10:37:27.674Z,4.00
2022-12-20T10:39:55.553Z,3.80
2022-12-20T10:42:26.240Z,4.20
2022-12-20T10:44:56.922Z,4.10
2022-12-20T10:47:36.525Z,4.40
2022-12-20T10:50:22.116Z,3.80
2022-12-20T10:53:11.628Z,4.00
2022-12-20T10:55:41.521Z,4.00
2022-12-20T10:58:35.337Z,3.80
2022-12-20T11:01:26.295Z,3.90
2022-12-20T11:04:18.994Z,4.40
2022-12-20T11:06:47.338Z,3.60
2022-12-20T11:09:25.752Z,4.10
2022-12-20T11:12:14.713Z,3.90
2022-12-20T11:14:44.726Z,3.50
2022-12-20T11:17:35.851Z,3.80
2022-12-20T11:20:26.867Z,4.20
2022-12-20T11:23:21.834Z,4.00
2022-12-20T11:26:12.233Z,4.00
2022-12-20T11:29:11.962Z,3.90
2022-12-20T11:32:16.392Z,4.10
2022-12-20T11:34:50.600Z,3.90
2022-12-20T11:37:26.162Z,3.90
2022-12-20T11:40:27.102Z,3.90
2022-12-20T11:43:31.429Z,4.30
2022-12-20T11:51:30.871Z,3.90
2022-12-20T11:54:10.208Z,3.90
2022-12-20T11:56:44.596Z,4.10
2022-12-20T11:59:40.223Z,3.90
2022-12-20T12:02:11.081Z,4.00
2022-12-20T12:04:48.092Z,4.10
2022-12-20T12:07:33.545Z,3.90
2022-12-20T12:10:17.366Z,3.90
2022-12-20T12:12:48.085Z,4.10
2022-12-20T12:15:16.869Z,3.90
2022-12-20T12:18:03.427Z,3.90
2022-12-20T12:20:53.049Z,3.90
2022-12-20T12:23:39.731Z,4.20
2022-12-20T12:26:25.404Z,3.90
2022-12-20T12:28:59.831Z,4.10
2022-12-20T12:31:43.670Z,4.00
2022-12-20T12:34:21.154Z,4.30
2022-12-20T12:37:10.786Z,3.90
2022-12-20T12:39:44.621Z,3.70
2022-12-20T12:42:18.420Z,4.00
2022-12-20T12:45:15.627Z,4.20
2022-12-20T12:47:45.864Z,4.00
2022-12-20T12:50:32.811Z,4.00
2022-12-20T12:53:30.809Z,4.10
2022-12-20T12:56:19.218Z,4.20
2022-12-20T12:59:07.134Z,4.10
2022-12-20T13:01:54.055Z,4.20
2022-12-20T13:04:25.187Z,4.20
2022-12-20T13:07:24.889Z,4.30
2022-12-20T13:09:52.753Z,4.10
2022-12-20T13:12:36.590Z,4.20
2022-12-20T13:15:20.673Z,4.30
2022-12-20T13:20:25.990Z,4.10
2022-12-20T13:23:08.811Z,4.10
2022-12-20T13:25:53.048Z,4.30
2022-12-20T13:28:23.607Z,4.20
2022-12-20T13:31:07.680Z,4.00
2022-12-20T13:36:09.605Z,4.30
2022-12-20T13:38:44.880Z,4.30
2022-12-20T13:41:35.795Z,4.20
2022-12-20T13:44:16.283Z,4.10
2022-12-20T13:47:12.949Z,4.20
2022-12-20T13:49:43.658Z,4.20
2022-12-20T13:52:11.448Z,4.10
2022-12-20T13:54:45.337Z,4.20
2022-12-20T13:57:17.373Z,4.10
2022-12-20T13:59:53.000Z,4.20
2022-12-20T14:02:29.676Z,4.30
2022-12-20T14:05:05.211Z,4.40
2022-12-20T14:07:33.384Z,4.40
2022-12-20T14:10:03.945Z,4.30
2022-12-20T14:12:36.792Z,4.20
2022-12-20T14:15:22.185Z,4.30
2022-12-20T14:17:50.035Z,4.40
2022-12-20T14:20:30.008Z,4.20
2022-12-20T14:23:10.483Z,4.40
2022-12-20T14:25:51.213Z,4.30
2022-12-20T14:28:38.082Z,4.20
2022-12-20T14:31:22.331Z,3.50
2022-12-20T14:36:21.000Z,4.30
2022-12-20T14:38:51.387Z,4.60
2022-12-20T14:41:37.078Z,4.40
2022-12-20T14:44:07.711Z,4.40
2022-12-20T14:46:37.057Z,4.30
2022-12-20T14:49:32.635Z,4.60
2022-12-20T14:52:20.821Z,4.50
2022-12-20T14:55:10.004Z,4.70
2022-12-20T14:57:46.496Z,4.60
2022-12-20T15:00:14.509Z,4.40
2022-12-20T15:02:47.801Z,4.70
2022-12-20T15:05:31.764Z,4.60
2022-12-20T15:08:24.198Z,4.60
2022-12-20T15:10:53.552Z,4.70
2022-12-20T15:13:26.826Z,4.80
2022-12-20T15:15:55.438Z,4.70
2022-12-20T15:18:24.800Z,4.40
2022-12-20T15:21:02.111Z,4.50
2022-12-20T15:23:30.662Z,4.70
2022-12-20T15:25:58.795Z,4.30
2022-12-20T15:28:27.686Z,4.60
2022-12-20T15:30:55.855Z,4.90
2022-12-20T15:33:30.768Z,4.90
2022-12-20T15:35:58.668Z,4.60
2022-12-20T15:38:48.266Z,5.00
2022-12-20T15:41:32.637Z,4.70
2022-12-20T15:44:05.276Z,5.20
2022-12-20T15:46:33.452Z,7.30
2022-12-20T15:49:01.497Z,9.80
2022-12-20T15:51:40.214Z,9.30
2022-12-20T15:54:16.247Z,9.40
2022-12-20T15:56:44.080Z,6.40
2022-12-20T15:59:40.342Z,6.00
2022-12-20T16:02:00.676Z,6.30
2022-12-20T16:04:28.861Z,5.30
2022-12-20T16:06:56.967Z,4.70
2022-12-20T16:09:25.983Z,4.80
2022-12-20T16:11:54.016Z,5.20
2022-12-20T16:14:22.120Z,5.20
2022-12-20T16:16:50.919Z,4.60
2022-12-20T16:19:19.290Z,5.20
2022-12-20T16:21:52.179Z,6.00
2022-12-20T16:24:21.002Z,5.70
2022-12-20T16:26:50.477Z,5.10
2022-12-20T16:29:18.344Z,5.10
2022-12-20T16:31:46.361Z,4.80
2022-12-20T16:34:16.898Z,5.40
2022-12-20T16:36:45.241Z,4.90
2022-12-20T16:39:13.242Z,5.00
2022-12-20T16:41:42.736Z,4.70
2022-12-20T16:44:15.895Z,4.90
2022-12-20T16:46:45.326Z,5.00
2022-12-20T16:49:20.045Z,4.80
2022-12-20T16:51:49.839Z,4.90
2022-12-20T16:54:22.726Z,4.80
2022-12-20T16:56:56.045Z,5.00
2022-12-20T16:59:25.227Z,5.30
2022-12-20T17:01:56.713Z,4.90
2022-12-20T17:04:26.771Z,4.80
2022-12-20T17:06:54.799Z,4.80
2022-12-20T17:11:53.698Z,4.80
2022-12-20T17:14:21.511Z,4.80
2022-12-20T17:16:49.611Z,4.90
2022-12-20T17:19:17.796Z,4.60
2022-12-20T17:24:21.291Z,5.00
2022-12-20T17:26:49.292Z,4.70
2022-12-20T17:29:17.840Z,4.70
2022-12-20T17:31:46.858Z,4.60
2022-12-20T17:34:30.780Z,4.70
2022-12-20T17:36:58.731Z,4.90
2022-12-20T17:39:26.720Z,4.30
2022-12-20T17:41:55.319Z,4.60
2022-12-20T17:44:25.960Z,4.80
2022-12-20T17:46:55.776Z,4.80
2022-12-20T17:49:24.637Z,4.70
2022-12-20T17:51:52.719Z,5.00
2022-12-20T17:54:23.882Z,4.80
2022-12-20T17:56:56.367Z,4.60
2022-12-20T17:59:25.763Z,4.90
2022-12-20T18:01:53.845Z,4.80
2022-12-20T18:04:22.131Z,4.90
2022-12-20T18:06:50.209Z,4.70
2022-12-20T18:09:20.868Z,4.90
2022-12-20T18:11:49.355Z,4.60
2022-12-20T18:14:17.622Z,4.60
2022-12-20T18:16:45.998Z,4.70
2022-12-20T18:19:19.322Z,4.70
2022-12-20T18:21:47.442Z,4.40
2022-12-20T18:24:16.357Z,4.70
2022-12-20T18:26:44.928Z,4.60
2022-12-20T18:29:12.979Z,4.70
2022-12-20T18:31:41.369Z,4.70
2022-12-20T18:34:10.073Z,4.70
2022-12-20T18:36:37.984Z,5.00
2022-12-20T18:39:08.037Z,4.60
2022-12-20T18:41:36.145Z,4.20
2022-12-20T18:44:06.692Z,4.50
2022-12-20T18:46:34.632Z,4.80
2022-12-20T18:49:03.640Z,4.60
2022-12-20T18:51:36.454Z,4.10
2022-12-20T18:54:06.732Z,4.30
2022-12-20T18:56:37.155Z,4.70
2022-12-20T18:59:11.411Z,7.20
2022-12-20T19:01:42.425Z,6.30
2022-12-20T19:04:11.412Z,5.70
2022-12-20T19:06:40.091Z,5.20
2022-12-20T19:09:15.693Z,6.80
2022-12-20T19:11:43.775Z,5.20
2022-12-20T19:14:12.603Z,4.90
2022-12-20T19:16:40.670Z,4.70
2022-12-20T19:19:09.200Z,4.70
2022-12-20T19:21:40.133Z,4.60
2022-12-20T19:24:09.711Z,5.00
2022-12-20T19:26:37.807Z,5.00
2022-12-20T19:29:06.842Z,5.30
2022-12-20T19:31:37.551Z,5.00
2022-12-20T19:34:08.717Z,4.90
2022-12-20T19:36:42.554Z,4.70
2022-12-20T19:39:16.475Z,5.30
2022-12-20T19:44:28.229Z,5.20
2022-12-20T19:46:56.286Z,5.10
2022-12-20T19:49:24.305Z,4.70
2022-12-20T19:51:52.162Z,4.70
2022-12-20T19:54:20.013Z,4.50
2022-12-20T19:56:47.881Z,4.60
2022-12-20T19:59:16.602Z,4.90
2022-12-20T20:01:44.766Z,5.00
2022-12-20T20:04:12.744Z,4.70
2022-12-20T20:06:40.689Z,4.70
2022-12-20T20:09:08.597Z,4.60
2022-12-20T20:11:36.457Z,4.80
2022-12-20T20:14:06.982Z,4.80
2022-12-20T20:16:35.849Z,4.40
2022-12-20T20:19:05.399Z,4.60
2022-12-20T20:21:36.244Z,4.70
2022-12-20T20:24:08.607Z,4.70
2022-12-20T20:26:36.833Z,5.10
2022-12-20T20:29:06.098Z,5.00
2022-12-20T20:31:34.309Z,4.80
2022-12-20T20:34:02.506Z,4.40
2022-12-20T20:36:30.394Z,4.90
2022-12-20T20:38:58.334Z,6.10
2022-12-20T20:41:26.435Z,4.20
2022-12-20T20:43:54.297Z,4.30
2022-12-20T20:46:22.662Z,4.60
2022-12-20T20:48:50.654Z,4.70
2022-12-20T20:51:18.538Z,4.50
2022-12-20T20:53:46.410Z,4.70
2022-12-20T20:56:14.301Z,4.60
2022-12-20T20:58:42.607Z,4.80
2022-12-20T21:01:11.373Z,4.80
2022-12-20T21:03:40.390Z,5.30
2022-12-20T21:08:57.015Z,4.70
2022-12-20T21:11:25.094Z,4.50
2022-12-20T21:13:53.821Z,4.30
2022-12-20T21:16:22.620Z,4.50
2022-12-20T21:18:52.398Z,4.70
2022-12-20T21:21:21.200Z,4.60
2022-12-20T21:23:49.483Z,4.60
2022-12-20T21:26:19.026Z,4.60
2022-12-20T21:28:47.235Z,4.20
2022-12-20T21:31:19.364Z,4.10
2022-12-20T21:33:47.453Z,4.40
2022-12-20T21:36:18.247Z,4.30
2022-12-20T21:38:54.447Z,4.20
2022-12-20T21:41:26.373Z,4.30
2022-12-20T21:43:59.295Z,4.40
2022-12-20T21:46:30.150Z,4.20
2022-12-20T21:48:58.756Z,4.60
2022-12-20T21:56:36.141Z,4.30
2022-12-20T21:59:05.175Z,4.60
2022-12-20T22:01:33.612Z,4.80
2022-12-20T22:04:03.788Z,4.30
2022-12-20T22:06:32.869Z,4.40
2022-12-20T22:09:02.367Z,4.50
2022-12-20T22:11:31.159Z,4.30
2022-12-20T22:13:58.846Z,4.30
2022-12-20T22:16:30.047Z,4.40
2022-12-20T22:18:59.431Z,4.80
2022-12-20T22:21:30.109Z,4.30
2022-12-20T22:23:59.258Z,4.30
2022-12-20T22:26:29.981Z,4.70
2022-12-20T22:29:04.493Z,4.30
2022-12-20T22:31:33.445Z,4.30
2022-12-20T22:34:02.069Z,4.60
2022-12-20T22:36:30.069Z,4.50
2022-12-20T22:38:58.441Z,4.60
2022-12-20T22:41:33.089Z,4.30
2022-12-20T22:44:01.529Z,4.50
2022-12-20T22:46:29.906Z,4.20
2022-12-20T22:49:01.575Z,4.60
2022-12-20T22:51:31.664Z,4.50
2022-12-20T22:54:00.277Z,4.60
2022-12-20T22:56:28.100Z,4.50
2022-12-20T22:58:56.362Z,4.20
2022-12-20T23:01:24.884Z,4.40
2022-12-20T23:03:52.899Z,4.50
2022-12-20T23:06:21.501Z,4.40
2022-12-20T23:08:49.695Z,4.70
2022-12-20T23:11:39.824Z,4.60
2022-12-20T23:14:39.398Z,4.60
2022-12-20T23:17:09.173Z,4.20
2022-12-20T23:19:53.432Z,4.60
2022-12-20T23:25:08.647Z,4.30
2022-12-20T23:27:36.598Z,4.70
2022-12-20T23:30:08.395Z,4.70
2022-12-20T23:32:36.158Z,4.20
2022-12-20T23:35:11.947Z,4.40
2022-12-20T23:37:40.958Z,4.50
2022-12-20T23:40:10.757Z,4.50
2022-12-20T23:42:39.942Z,4.60
2022-12-20T23:45:08.543Z,4.90
2022-12-20T23:47:36.305Z,4.90
2022-12-20T23:50:04.922Z,4.60
2022-12-20T23:52:32.584Z,4.30
2022-12-20T23:55:00.324Z,4.30
2022-12-20T23:57:31.437Z,4.50
2022-12-20T23:59:59.856Z,4.40
